Time;durP1;ratioP1;P1;durP2;ratioP2;P2;SDS_P1;SDS_P2;PMS_P1;PMS_P2;Temp;Humidity;BMP_temperature;BMP_pressure;BME280_temperature;BME280_humidity;BME280_pressure;Samples;Min_cycle;Max_cycle;Signal;HPM_P1;HPM_P2
2021/08/20 00:00:07;;;;;;;1999.90;999.90;;;;;;;13.05;55.37;100980.81;5055516;27;97505;-72
2021/08/20 00:02:44;;;;;;;1999.90;999.90;;;;;;;13.02;55.49;100975.44;5073141;27;98987;-72
2021/08/20 00:05:12;;;;;;;1999.90;999.90;;;;;;;13.02;55.62;100978.13;5057861;27;98634;-70
2021/08/20 00:07:40;;;;;;;1999.90;999.90;;;;;;;12.99;55.53;100975.34;5053168;27;97517;-72
2021/08/20 00:10:08;;;;;;;1999.90;999.90;;;;;;;13.00;55.54;100978.06;5059107;27;97101;-70
2021/08/20 00:12:36;;;;;;;1999.90;999.90;;;;;;;13.00;55.52;100979.84;5054865;27;97790;-70
2021/08/20 00:15:04;;;;;;;1999.90;999.90;;;;;;;13.01;55.44;100978.97;5055498;27;97957;-70
2021/08/20 00:17:32;;;;;;;1999.90;999.90;;;;;;;12.97;55.50;100975.31;5060260;27;97167;-71
2021/08/20 00:20:01;;;;;;;1999.90;999.90;;;;;;;12.95;55.56;100982.41;5052049;27;97022;-70
2021/08/20 00:22:29;;;;;;;1999.90;999.90;;;;;;;12.95;55.49;100981.50;5054917;27;97703;-70
2021/08/20 00:24:57;;;;;;;1999.90;999.90;;;;;;;12.95;55.39;100973.50;5056624;27;97744;-70
2021/08/20 00:27:25;;;;;;;1999.90;999.90;;;;;;;12.94;55.59;100985.97;5035345;27;98886;-71
2021/08/20 00:29:53;;;;;;;1999.90;999.90;;;;;;;12.94;55.54;100975.28;5055167;27;98177;-70
2021/08/20 00:32:20;;;;;;;1999.90;999.90;;;;;;;12.92;55.57;100976.13;5056164;27;97961;-72
2021/08/20 00:34:48;;;;;;;1999.90;999.90;;;;;;;12.93;55.41;100983.25;5054090;27;99190;-70
2021/08/20 00:37:17;;;;;;;1999.90;999.90;;;;;;;12.95;55.42;100978.84;5048602;27;99529;-71
2021/08/20 00:39:45;;;;;;;1999.90;999.90;;;;;;;12.95;55.44;100966.38;5056753;27;97831;-70
2021/08/20 00:42:13;;;;;;;1999.90;999.90;;;;;;;12.97;55.39;100974.41;5052909;27;97684;-70
2021/08/20 00:44:41;;;;;;;1999.90;999.90;;;;;;;12.97;55.39;100969.97;5058533;27;98362;-70
2021/08/20 00:47:09;;;;;;;1999.90;999.90;;;;;;;12.96;55.42;100957.50;5057134;27;98573;-72
2021/08/20 00:49:36;;;;;;;1999.90;999.90;;;;;;;12.96;55.47;100964.63;5056802;27;97184;-71
2021/08/20 00:52:05;;;;;;;1999.90;999.90;;;;;;;12.95;55.42;100971.72;5038065;27;101156;-72
2021/08/20 00:54:37;;;;;;;1999.90;999.90;;;;;;;12.95;55.37;100968.16;5038588;27;99216;-69
2021/08/20 00:57:05;;;;;;;1999.90;999.90;;;;;;;12.94;55.48;100963.69;5057899;27;98851;-71
2021/08/20 00:59:33;;;;;;;1999.90;999.90;;;;;;;12.98;55.28;100970.88;5052267;27;97699;-71
2021/08/20 01:02:02;;;;;;;1999.90;999.90;;;;;;;12.96;55.35;100978.88;5055403;27;97137;-69
2021/08/20 01:04:30;;;;;;;1999.90;999.90;;;;;;;12.96;55.34;100980.66;5035989;27;99190;-70
2021/08/20 01:07:01;;;;;;;1999.90;999.90;;;;;;;12.95;55.32;100969.06;5054730;27;97103;-70
2021/08/20 01:09:29;;;;;;;1999.90;999.90;;;;;;;12.94;55.29;100977.97;5055510;27;97692;-71
2021/08/20 01:11:58;;;;;;;1999.90;999.90;;;;;;;;;;5053508;27;97879;-71
2021/08/20 01:14:28;;;;;;;1999.90;999.90;;;;;;;12.93;55.24;100967.22;5038531;27;98878;-71
2021/08/20 01:16:57;;;;;;;1999.90;999.90;;;;;;;12.91;55.22;100969.00;5054655;27;97988;-71
2021/08/20 01:19:24;;;;;;;1999.90;999.90;;;;;;;12.91;55.31;100969.00;5049736;27;98326;-71
2021/08/20 01:21:54;;;;;;;1999.90;999.90;;;;;;;12.92;55.10;100965.44;5037057;27;100074;-71
2021/08/20 01:24:22;;;;;;;1999.90;999.90;;;;;;;12.94;55.05;100969.03;5050620;27;98130;-68
2021/08/20 01:26:52;;;;;;;1999.90;999.90;;;;;;;12.95;55.05;100968.16;5054276;27;97247;-70
2021/08/20 01:29:21;;;;;;;1999.90;999.90;;;;;;;12.95;55.21;100973.50;5052186;27;97769;-71
2021/08/20 01:31:49;;;;;;;1999.90;999.90;;;;;;;;;;5035000;27;97749;-69
2021/08/20 01:34:18;;;;;;;1999.90;999.90;;;;;;;12.93;55.13;100967.22;5054301;27;97800;-70
2021/08/20 01:36:50;;;;;;;1999.90;999.90;;;;;;;12.93;55.05;100961.88;5049598;27;96917;-71
2021/08/20 01:39:18;;;;;;;1999.90;999.90;;;;;;;12.94;55.11;100963.69;5043961;27;96916;-71
2021/08/20 01:41:45;;;;;;;1999.90;999.90;;;;;;;12.97;55.06;100955.72;5064712;27;97935;-70
2021/08/20 01:44:18;;;;;;;1999.90;999.90;;;;;;;12.98;55.04;100953.06;5046605;27;97919;-71
2021/08/20 01:46:46;;;;;;;1999.90;999.90;;;;;;;12.99;55.02;100953.97;5041035;27;97341;-71
2021/08/20 01:49:14;;;;;;;1999.90;999.90;;;;;;;13.01;54.95;100954.91;5033948;27;98815;-69
2021/08/20 01:51:42;;;;;;;1999.90;999.90;;;;;;;13.01;54.86;100952.25;5037777;27;98028;-71
2021/08/20 01:54:11;;;;;;;1999.90;999.90;;;;;;;13.01;54.90;100949.59;5070190;27;98774;-73
2021/08/20 01:56:39;;;;;;;1999.90;999.90;;;;;;;13.00;54.95;100947.81;5051305;27;97202;-71
2021/08/20 01:59:12;;;;;;;1999.90;999.90;;;;;;;12.99;54.87;100932.59;5052720;27;98535;-69
2021/08/20 02:01:41;;;;;;;1999.90;999.90;;;;;;;13.00;54.70;100929.09;5053038;27;101370;-70
2021/08/20 02:04:10;;;;;;;1999.90;999.90;;;;;;;13.00;54.87;100932.66;5051860;27;101003;-70
2021/08/20 02:06:40;;;;;;;1999.90;999.90;;;;;;;13.01;54.88;100934.47;5035283;27;96927;-72
2021/08/20 02:09:09;;;;;;;1999.90;999.90;;;;;;;13.02;54.79;100954.94;5054092;27;99083;-70
2021/08/20 02:11:37;;;;;;;1999.90;999.90;;;;;;;13.01;54.88;100952.25;5038354;27;98277;-71
2021/08/20 02:14:08;;;;;;;1999.90;999.90;;;;;;;13.00;54.82;100953.16;5036073;27;98907;-71
2021/08/20 02:16:38;;;;;;;1999.90;999.90;;;;;;;12.97;54.78;100953.94;5036643;27;97591;-71
2021/08/20 02:19:14;;;;;;;1999.90;999.90;;;;;;;12.94;54.90;100953.91;5052756;27;99247;-71
2021/08/20 02:21:42;;;;;;;1999.90;999.90;;;;;;;12.88;55.01;100951.16;5054334;27;98085;-69
2021/08/20 02:24:19;;;;;;;1999.90;999.90;;;;;;;12.86;54.88;100960.00;5053845;27;100582;-73
2021/08/20 02:26:49;;;;;;;1999.90;999.90;;;;;;;12.84;54.96;100957.31;5039735;27;96947;-71
2021/08/20 02:29:17;;;;;;;1999.90;999.90;;;;;;;12.84;54.85;100951.06;5059222;27;98624;-71
2021/08/20 02:31:46;;;;;;;1999.90;999.90;;;;;;;12.85;54.98;100958.22;5057542;27;98542;-71
2021/08/20 02:34:16;;;;;;;1999.90;999.90;;;;;;;12.89;54.91;100957.41;5056519;27;98760;-69
2021/08/20 02:36:44;;;;;;;1999.90;999.90;;;;;;;12.89;54.76;100962.75;5056402;27;98100;-70
2021/08/20 02:39:14;;;;;;;1999.90;999.90;;;;;;;12.89;54.78;100954.72;5038845;27;97983;-70
2021/08/20 02:41:42;;;;;;;1999.90;999.90;;;;;;;12.88;54.92;100956.50;5047527;27;100667;-71
2021/08/20 02:44:10;;;;;;;1999.90;999.90;;;;;;;12.85;54.86;100947.53;5040422;27;102284;-69
2021/08/20 02:46:38;;;;;;;1999.90;999.90;;;;;;;12.83;54.92;100949.28;5043438;27;97016;-71
2021/08/20 02:49:07;;;;;;;1999.90;999.90;;;;;;;12.81;54.84;100946.59;5057239;27;97219;-71
2021/08/20 02:51:37;;;;;;;1999.90;999.90;;;;;;;12.77;54.88;100943.84;5040978;27;99234;-69
2021/08/20 02:54:05;;;;;;;1999.90;999.90;;;;;;;12.75;55.00;100946.50;5056739;27;99181;-72
2021/08/20 02:56:33;;;;;;;1999.90;999.90;;;;;;;12.74;54.81;100943.81;5054829;27;99184;-72
2021/08/20 02:59:04;;;;;;;1999.90;999.90;;;;;;;12.73;54.84;100942.03;5055421;27;98468;-70
2021/08/20 03:01:32;;;;;;;1999.90;999.90;;;;;;;12.72;54.84;100957.16;5057954;27;97504;-71
2021/08/20 03:04:06;;;;;;;1999.90;999.90;;;;;;;12.70;54.84;100958.91;5038863;27;99690;-70
2021/08/20 03:06:34;;;;;;;1999.90;999.90;;;;;;;12.69;54.85;100964.22;5041395;27;98757;-69
2021/08/20 03:09:10;;;;;;;1999.90;999.90;;;;;;;12.66;54.70;100950.81;5042191;27;97754;-71
2021/08/20 03:11:39;;;;;;;1999.90;999.90;;;;;;;12.63;54.84;100951.66;5058554;27;100256;-71
2021/08/20 03:14:07;;;;;;;1999.90;999.90;;;;;;;12.63;54.84;100950.75;5040306;27;99819;-71
2021/08/20 03:16:38;;;;;;;1999.90;999.90;;;;;;;12.62;54.99;100951.66;5040915;27;98660;-72
2021/08/20 03:19:07;;;;;;;1999.90;999.90;;;;;;;12.62;54.75;100955.19;5038809;27;97758;-72
2021/08/20 03:21:37;;;;;;;1999.90;999.90;;;;;;;12.61;54.78;100955.19;5073736;27;99234;-72
2021/08/20 03:24:05;;;;;;;1999.90;999.90;;;;;;;12.59;54.68;100949.81;5058966;27;97601;-72
2021/08/20 03:26:37;;;;;;;1999.90;999.90;;;;;;;12.54;54.87;100951.53;5041395;27;97525;-70
2021/08/20 03:29:06;;;;;;;1999.90;999.90;;;;;;;12.54;54.89;100945.28;5034434;27;97962;-72
2021/08/20 03:31:42;;;;;;;1999.90;999.90;;;;;;;12.55;54.85;100950.63;5040232;27;100514;-70
2021/08/20 03:34:10;;;;;;;1999.90;999.90;;;;;;;12.60;54.67;100953.41;5037371;27;99151;-72
2021/08/20 03:36:39;;;;;;;1999.90;999.90;;;;;;;12.64;54.79;100950.78;5039007;27;98792;-71
2021/08/20 03:39:24;;;;;;;1999.90;999.90;;;;;;;12.99;54.32;100959.31;5031923;27;96915;-71
2021/08/20 03:41:53;;;;;;;1999.90;999.90;;;;;;;12.83;54.64;100950.19;5056305;27;97997;-72
2021/08/20 03:44:22;;;;;;;1999.90;999.90;;;;;;;12.82;54.76;100952.84;5057601;27;98188;-72
2021/08/20 03:46:55;;;;;;;1999.90;999.90;;;;;;;12.80;54.78;100954.59;5057815;27;97026;-71
2021/08/20 03:49:24;;;;;;;1999.90;999.90;;;;;;;12.79;54.83;100950.13;5040097;27;97797;-69
2021/08/20 03:51:52;;;;;;;1999.90;999.90;;;;;;;12.81;54.71;100959.03;5060559;27;97048;-71
2021/08/20 03:54:24;;;;;;;1999.90;999.90;;;;;;;12.81;54.50;100957.28;5040019;27;99590;-71
2021/08/20 03:56:53;;;;;;;1999.90;999.90;;;;;;;12.83;54.59;100966.22;5038606;27;97758;-72
2021/08/20 03:59:25;;;;;;;1999.90;999.90;;;;;;;12.81;54.67;100957.28;5038710;27;97938;-70
2021/08/20 04:02:07;;;;;;;1999.90;999.90;;;;;;;12.80;54.74;100965.28;5063555;27;99357;-71
2021/08/20 04:04:38;;;;;;;1999.90;999.90;;;;;;;12.80;54.33;100965.28;5057464;27;98586;-72
2021/08/20 04:07:19;;;;;;;1999.90;999.90;;;;;;;12.83;54.56;100965.31;5057237;27;97116;-72
2021/08/20 04:09:57;;;;;;;1999.90;999.90;;;;;;;12.83;54.57;100968.88;5052759;27;97356;-72
2021/08/20 04:12:48;;;;;;;1999.90;999.90;;;;;;;12.83;54.66;100971.56;5038425;27;99445;-70
2021/08/20 04:15:25;;;;;;;1999.90;999.90;;;;;;;12.84;54.49;100972.44;5054829;27;97474;-71
2021/08/20 04:17:53;;;;;;;1999.90;999.90;;;;;;;12.83;54.47;100976.00;5056750;27;98103;-71
2021/08/20 04:20:21;;;;;;;1999.90;999.90;;;;;;;12.81;54.57;100975.06;5071974;27;97757;-71
2021/08/20 04:22:49;;;;;;;1999.90;999.90;;;;;;;12.80;54.41;100979.50;5057023;27;100684;-71
2021/08/20 04:25:18;;;;;;;1999.90;999.90;;;;;;;12.80;54.54;100979.50;5032082;27;99182;-72
2021/08/20 04:28:25;;;;;;;1999.90;999.90;;;;;;;12.79;54.34;100987.50;5017980;27;98664;-71
2021/08/20 04:31:16;;;;;;;1999.90;999.90;;;;;;;12.77;54.46;100967.88;5016478;27;97547;-71
2021/08/20 04:34:07;;;;;;;1999.90;999.90;;;;;;;12.77;54.51;100971.47;5049228;27;98191;-69
2021/08/20 04:36:55;;;;;;;1999.90;999.90;;;;;;;12.76;54.46;100977.69;5037471;27;97899;-71
2021/08/20 04:39:51;;;;;;;1999.90;999.90;;;;;;;12.76;54.36;100982.13;5040996;27;98040;-72
2021/08/20 04:42:51;;;;;;;1999.90;999.90;;;;;;;12.73;54.52;100974.94;5046575;27;96915;-72
2021/08/20 04:45:50;;;;;;;1999.90;999.90;;;;;;;12.71;54.54;100981.16;5020030;27;100198;-71
2021/08/20 04:48:42;;;;;;;1999.90;999.90;;;;;;;12.68;54.46;100981.09;5038751;27;98977;-72
2021/08/20 04:51:29;;;;;;;1999.90;999.90;;;;;;;12.65;54.55;100973.97;5057461;27;97826;-72
2021/08/20 04:54:11;;;;;;;1999.90;999.90;;;;;;;12.64;54.60;100980.16;5056666;27;96985;-69
2021/08/20 04:56:50;;;;;;;1999.90;999.90;;;;;;;12.62;54.59;100981.03;5062911;27;99064;-71
2021/08/20 04:59:17;;;;;;;1999.90;999.90;;;;;;;12.59;54.55;100975.59;5062755;27;97603;-72
2021/08/20 05:01:47;;;;;;;1999.90;999.90;;;;;;;12.56;54.56;100975.56;5064077;27;96807;-71
2021/08/20 05:04:17;;;;;;;1999.90;999.90;;;;;;;12.53;54.70;100981.75;5063162;27;97579;-71
2021/08/20 05:06:45;;;;;;;1999.90;999.90;;;;;;;12.51;54.58;100983.50;5045831;27;99526;-72
2021/08/20 05:09:12;;;;;;;1999.90;999.90;;;;;;;12.49;54.78;100985.22;5063726;27;100288;-71
2021/08/20 05:11:40;;;;;;;1999.90;999.90;;;;;;;12.47;54.75;100980.75;5062596;27;97505;-71
2021/08/20 05:14:08;;;;;;;1999.90;999.90;;;;;;;12.47;54.56;100991.44;5043862;27;96948;-72
2021/08/20 05:16:35;;;;;;;1999.90;999.90;;;;;;;12.49;54.61;100990.56;5063582;27;99536;-70
2021/08/20 05:19:05;;;;;;;1999.90;999.90;;;;;;;12.50;54.52;101002.16;5061374;27;99356;-72
2021/08/20 05:21:32;;;;;;;1999.90;999.90;;;;;;;12.49;54.52;100995.91;5059577;27;96768;-72
2021/08/20 05:24:00;;;;;;;1999.90;999.90;;;;;;;12.49;54.61;101011.06;5060516;27;97502;-73
2021/08/20 05:26:28;;;;;;;1999.90;999.90;;;;;;;12.48;54.61;101010.16;5062612;27;98982;-73
2021/08/20 05:28:56;;;;;;;1999.90;999.90;;;;;;;12.48;54.46;101014.56;5063533;27;97584;-72
2021/08/20 05:31:24;;;;;;;1999.90;999.90;;;;;;;12.47;54.35;101012.78;5061643;27;97326;-72
2021/08/20 05:33:51;;;;;;;1999.90;999.90;;;;;;;12.48;54.55;101010.16;5062173;27;97044;-72
2021/08/20 05:36:20;;;;;;;1999.90;999.90;;;;;;;12.51;54.21;101014.66;5060766;27;99244;-71
2021/08/20 05:38:48;;;;;;;1999.90;999.90;;;;;;;12.51;54.34;101004.84;5065313;27;98842;-73
2021/08/20 05:41:16;;;;;;;1999.90;999.90;;;;;;;12.53;54.21;101012.91;5061423;27;96909;-72
2021/08/20 05:43:44;;;;;;;1999.90;999.90;;;;;;;12.54;54.07;101020.03;5065300;27;97513;-72
2021/08/20 05:46:12;;;;;;;1999.90;999.90;;;;;;;12.53;54.15;101023.59;5062762;27;99310;-73
2021/08/20 05:48:40;;;;;;;1999.90;999.90;;;;;;;12.52;54.29;101021.78;5063068;27;97739;-72
2021/08/20 05:51:08;;;;;;;1999.90;999.90;;;;;;;12.52;54.25;101022.69;5062814;27;97927;-73
2021/08/20 05:53:37;;;;;;;1999.90;999.90;;;;;;;12.53;54.15;101032.47;5063538;27;97122;-73
2021/08/20 05:56:05;;;;;;;1999.90;999.90;;;;;;;12.54;54.42;101030.72;5064798;27;97720;-72
2021/08/20 05:58:33;;;;;;;1999.90;999.90;;;;;;;12.53;54.18;101034.25;5065863;27;97779;-73
2021/08/20 06:01:00;;;;;;;1999.90;999.90;;;;;;;12.54;54.28;101031.63;5066259;27;97659;-72
2021/08/20 06:03:29;;;;;;;1999.90;999.90;;;;;;;12.55;54.23;101035.16;5056914;27;97823;-73
2021/08/20 06:06:02;;;;;;;1999.90;999.90;;;;;;;12.54;54.13;101041.38;5061705;27;98422;-73
2021/08/20 06:08:30;;;;;;;1999.90;999.90;;;;;;;12.52;54.22;101032.44;5067841;27;98228;-71
2021/08/20 06:10:59;;;;;;;1999.90;999.90;;;;;;;12.53;53.98;101029.78;5066234;27;96780;-72
2021/08/20 06:13:27;;;;;;;1999.90;999.90;;;;;;;12.52;54.11;101032.44;5067430;27;97635;-72
2021/08/20 06:15:55;;;;;;;1999.90;999.90;;;;;;;12.51;54.11;101026.19;5066144;27;99002;-71
2021/08/20 06:18:23;;;;;;;1999.90;999.90;;;;;;;12.51;54.16;101038.66;5066396;27;96849;-73
2021/08/20 06:20:51;;;;;;;1999.90;999.90;;;;;;;12.49;54.12;101029.75;5066048;27;97844;-73
2021/08/20 06:23:18;;;;;;;1999.90;999.90;;;;;;;12.48;54.17;101031.50;5064778;27;97646;-73
2021/08/20 06:25:46;;;;;;;1999.90;999.90;;;;;;;12.47;53.92;101023.47;5064487;27;97813;-72
2021/08/20 06:28:15;;;;;;;1999.90;999.90;;;;;;;12.46;53.87;101027.00;5063198;27;100263;-73
2021/08/20 06:30:46;;;;;;;1999.90;999.90;;;;;;;12.47;53.87;101034.16;5046180;27;97066;-72
2021/08/20 06:33:15;;;;;;;1999.90;999.90;;;;;;;12.45;53.74;101030.56;5068599;27;97301;-73
2021/08/20 06:35:43;;;;;;;1999.90;999.90;;;;;;;12.45;53.69;101043.91;5064328;27;101099;-73
2021/08/20 06:38:11;;;;;;;1999.90;999.90;;;;;;;12.44;53.78;101034.97;5067872;27;97557;-74
2021/08/20 06:40:38;;;;;;;1999.90;999.90;;;;;;;12.44;53.53;101037.66;5066421;27;97231;-73
2021/08/20 06:43:06;;;;;;;1999.90;999.90;;;;;;;12.44;53.54;101044.75;5045400;27;96952;-73
2021/08/20 06:45:35;;;;;;;1999.90;999.90;;;;;;;12.44;53.39;101044.75;5066820;27;99472;-72
2021/08/20 06:48:03;;;;;;;1999.90;999.90;;;;;;;12.46;53.31;101035.91;5065361;27;100615;-73
2021/08/20 06:50:31;;;;;;;1999.90;999.90;;;;;;;12.45;53.22;101046.56;5065877;27;97352;-73
2021/08/20 06:52:59;;;;;;;1999.90;999.90;;;;;;;12.43;53.30;101053.63;5065384;27;97581;-73
2021/08/20 06:55:31;;;;;;;1999.90;999.90;;;;;;;12.43;53.09;101056.31;5042481;27;99566;-73
2021/08/20 06:57:59;;;;;;;1999.90;999.90;;;;;;;12.42;53.19;101051.84;5065004;27;97650;-73
2021/08/20 07:00:27;;;;;;;1999.90;999.90;;;;;;;12.42;53.40;101055.41;5065151;27;97699;-72
2021/08/20 07:02:56;;;;;;;1999.90;999.90;;;;;;;12.44;53.20;101050.09;5066530;27;96918;-73
2021/08/20 07:05:25;;;;;;;1999.90;999.90;;;;;;;12.47;53.12;101060.84;5057663;27;99791;-71
2021/08/20 07:07:52;;;;;;;1999.90;999.90;;;;;;;12.48;52.97;101054.63;5065363;27;97857;-73
2021/08/20 07:10:20;;;;;;;1999.90;999.90;;;;;;;12.51;53.08;101054.69;5064130;27;97343;-70
2021/08/20 07:12:48;;;;;;;1999.90;999.90;;;;;;;12.53;53.17;101052.94;5063872;27;96827;-76
2021/08/20 07:15:17;;;;;;;1999.90;999.90;;;;;;;12.53;53.09;101056.50;5064154;27;100447;-73
2021/08/20 07:17:44;;;;;;;1999.90;999.90;;;;;;;12.54;53.19;101055.63;5066309;27;96782;-75
2021/08/20 07:20:14;;;;;;;1999.90;999.90;;;;;;;12.57;53.02;101049.44;5065362;27;97226;-71
2021/08/20 07:22:44;;;;;;;1999.90;999.90;;;;;;;12.59;53.15;101051.28;5047514;27;97725;-75
2021/08/20 07:25:12;;;;;;;1999.90;999.90;;;;;;;12.61;53.14;101052.19;5065577;27;99859;-71
2021/08/20 07:27:40;;;;;;;1999.90;999.90;;;;;;;12.64;53.18;101054.91;5067920;27;96881;-72
2021/08/20 07:30:08;;;;;;;1999.90;999.90;;;;;;;12.65;53.05;101055.81;5065888;27;97395;-72
2021/08/20 07:32:36;;;;;;;1999.90;999.90;;;;;;;12.67;53.11;101054.06;5066337;27;98689;-75
2021/08/20 07:35:04;;;;;;;1999.90;999.90;;;;;;;12.68;53.11;101050.50;5067000;27;98817;-74
2021/08/20 07:37:34;;;;;;;1999.90;999.90;;;;;;;12.99;52.68;101055.47;5062046;27;99294;-72
2021/08/20 07:40:02;;;;;;;1999.90;999.90;;;;;;;12.88;52.88;101060.66;5065830;27;96873;-73
2021/08/20 07:42:30;;;;;;;1999.90;999.90;;;;;;;12.90;52.92;101058.00;5065206;27;96866;-74
2021/08/20 07:44:58;;;;;;;1999.90;999.90;;;;;;;12.94;52.92;101067.88;5066410;27;98903;-75
2021/08/20 07:47:26;;;;;;;1999.90;999.90;;;;;;;12.98;52.88;101067.06;5041764;27;99218;-74
2021/08/20 07:49:54;;;;;;;1999.90;999.90;;;;;;;13.02;52.87;101068.94;5041951;27;98129;-73
2021/08/20 07:52:22;;;;;;;1999.90;999.90;;;;;;;13.03;52.70;101057.38;5062222;27;97236;-74
2021/08/20 07:54:52;;;;;;;1999.90;999.90;;;;;;;13.07;52.77;101064.56;5048416;27;97849;-73
2021/08/20 07:57:20;;;;;;;1999.90;999.90;;;;;;;13.11;52.68;101059.28;5062553;27;99201;-74
2021/08/20 07:59:48;;;;;;;1999.90;999.90;;;;;;;13.15;52.56;101057.53;5066694;27;97610;-75
2021/08/20 08:02:15;;;;;;;1999.90;999.90;;;;;;;13.18;52.52;101061.16;5065543;27;97142;-74
2021/08/20 08:04:43;;;;;;;1999.90;999.90;;;;;;;13.23;52.52;101063.91;5062569;27;98793;-73
2021/08/20 08:07:11;;;;;;;1999.90;999.90;;;;;;;13.26;52.49;101063.94;5065060;27;100470;-74
2021/08/20 08:09:39;;;;;;;1999.90;999.90;;;;;;;13.30;52.39;101075.56;5065083;27;99149;-74
2021/08/20 08:12:10;;;;;;;1999.90;999.90;;;;;;;13.36;52.42;101071.22;5065060;27;96874;-74
2021/08/20 08:14:38;;;;;;;1999.90;999.90;;;;;;;13.40;52.27;101074.84;5064737;27;99280;-74
2021/08/20 08:17:06;;;;;;;1999.90;999.90;;;;;;;13.41;52.10;101077.53;5063362;27;99353;-76
2021/08/20 08:19:34;;;;;;;1999.90;999.90;;;;;;;13.42;51.84;101076.69;5057465;27;97323;-74
2021/08/20 08:22:01;;;;;;;1999.90;999.90;;;;;;;13.43;51.70;101078.47;5053014;27;97313;-73
2021/08/20 08:24:30;;;;;;;1999.90;999.90;;;;;;;13.41;51.21;101084.66;5054639;27;98063;-74
2021/08/20 08:26:57;;;;;;;1999.90;999.90;;;;;;;13.41;51.41;101088.22;5057068;27;97866;-75
2021/08/20 08:29:26;;;;;;;1999.90;999.90;;;;;;;13.43;51.34;101089.16;5053385;27;96858;-73
2021/08/20 08:31:54;;;;;;;1999.90;999.90;;;;;;;13.69;50.08;101082.41;5057644;27;99099;-73
2021/08/20 08:34:22;;;;;;;1999.90;999.90;;;;;;;13.58;50.50;101078.69;5057694;27;97741;-72
2021/08/20 08:36:50;;;;;;;1999.90;999.90;;;;;;;13.60;50.47;101073.34;5051835;27;98874;-73
2021/08/20 08:39:17;;;;;;;1999.90;999.90;;;;;;;13.90;49.44;101080.00;5053067;27;99868;-74
2021/08/20 08:41:45;;;;;;;1999.90;999.90;;;;;;;14.05;48.73;101079.31;5046239;27;98785;-75
2021/08/20 08:44:13;;;;;;;1999.90;999.90;;;;;;;14.19;48.58;101075.00;5056351;27;98308;-75
2021/08/20 08:46:42;;;;;;;1999.90;999.90;;;;;;;14.03;49.07;101081.97;5048679;27;97823;-74
2021/08/20 08:49:12;;;;;;;1999.90;999.90;;;;;;;13.98;49.26;101086.38;5050784;27;97630;-75
2021/08/20 08:51:40;;;;;;;1999.90;999.90;;;;;;;13.96;49.57;101080.09;5059847;27;97072;-74
2021/08/20 08:54:12;;;;;;;1999.90;999.90;;;;;;;13.96;49.43;101082.78;5056073;27;100949;-75
2021/08/20 08:56:42;;;;;;;1999.90;999.90;;;;;;;14.00;49.59;101073.91;5051902;27;98692;-75
2021/08/20 08:59:10;;;;;;;1999.90;999.90;;;;;;;14.05;49.47;101072.19;5067790;27;96978;-73
2021/08/20 09:01:38;;;;;;;1999.90;999.90;;;;;;;14.11;49.32;101069.59;5051135;27;99106;-75
2021/08/20 09:04:10;;;;;;;1999.90;999.90;;;;;;;14.41;48.07;101082.38;5048423;27;97910;-74
2021/08/20 09:06:40;;;;;;;1999.90;999.90;;;;;;;14.32;48.76;101086.72;5053199;27;97652;-75
2021/08/20 09:09:09;;;;;;;1999.90;999.90;;;;;;;14.55;47.41;101077.16;5055166;27;98254;-75
2021/08/20 09:11:37;;;;;;;1999.90;999.90;;;;;;;14.69;46.43;101081.81;5052563;27;98176;-74
2021/08/20 09:14:05;;;;;;;1999.90;999.90;;;;;;;14.57;47.48;101089.69;5052993;27;98474;-73
2021/08/20 09:16:38;;;;;;;1999.90;999.90;;;;;;;14.55;46.94;101093.25;5047531;27;99253;-72
2021/08/20 09:19:16;;;;;;;1999.90;999.90;;;;;;;14.51;46.42;101097.66;5049638;27;98145;-75
2021/08/20 09:21:47;;;;;;;1999.90;999.90;;;;;;;14.52;47.27;101090.50;5048606;27;99492;-74
2021/08/20 09:24:36;;;;;;;1999.90;999.90;;;;;;;14.45;45.88;101094.00;5052664;27;98656;-74
2021/08/20 09:27:26;;;;;;;1999.90;999.90;;;;;;;14.37;46.00;101098.41;5054023;27;100516;-74
2021/08/20 09:30:06;;;;;;;1999.90;999.90;;;;;;;14.35;47.16;101102.84;5049483;27;98575;-75
2021/08/20 09:32:34;;;;;;;1999.90;999.90;;;;;;;14.32;47.63;101097.44;5048265;27;97884;-74
2021/08/20 09:35:04;;;;;;;1999.90;999.90;;;;;;;14.28;47.85;101091.16;5059915;27;98047;-72
2021/08/20 09:37:32;;;;;;;1999.90;999.90;;;;;;;14.26;48.12;101092.03;5055321;27;99460;-74
2021/08/20 09:40:04;;;;;;;1999.90;999.90;;;;;;;14.25;47.86;101095.56;5059213;27;97895;-73
2021/08/20 09:42:32;;;;;;;1999.90;999.90;;;;;;;14.25;48.02;101090.22;5059376;27;97603;-75
2021/08/20 09:45:19;;;;;;;1999.90;999.90;;;;;;;14.19;46.87;101090.19;5057372;27;100468;-72
2021/08/20 09:47:49;;;;;;;1999.90;999.90;;;;;;;14.20;48.16;101089.28;5053702;27;98024;-76
2021/08/20 09:50:20;;;;;;;1999.90;999.90;;;;;;;14.21;48.10;101091.09;5054974;27;98037;-74
2021/08/20 09:52:49;;;;;;;1999.90;999.90;;;;;;;14.23;48.17;101102.69;5059990;27;96913;-73
2021/08/20 09:55:37;;;;;;;1999.90;999.90;;;;;;;14.15;46.81;101095.47;5060246;27;98531;-75
2021/08/20 09:58:07;;;;;;;1999.90;999.90;;;;;;;14.20;48.17;101097.31;5058834;27;97988;-74
2021/08/20 10:00:35;;;;;;;1999.90;999.90;;;;;;;14.17;48.25;101085.69;5059282;27;98971;-75
2021/08/20 10:03:06;;;;;;;1999.90;999.90;;;;;;;14.17;48.48;101091.94;5053175;27;98767;-75
2021/08/20 10:05:36;;;;;;;1999.90;999.90;;;;;;;14.18;48.33;101102.66;5057609;27;99881;-74
2021/08/20 10:08:06;;;;;;;1999.90;999.90;;;;;;;14.17;48.14;101096.41;5057215;27;98707;-74
2021/08/20 10:10:34;;;;;;;1999.90;999.90;;;;;;;14.17;48.10;101099.06;5037415;27;97076;-73
2021/08/20 10:13:03;;;;;;;1999.90;999.90;;;;;;;14.18;47.98;101099.97;5056702;27;97015;-73
2021/08/20 10:15:32;;;;;;;1999.90;999.90;;;;;;;14.15;48.18;101097.28;5055846;27;98819;-75
2021/08/20 10:18:03;;;;;;;1999.90;999.90;;;;;;;14.11;48.08;101112.41;5059157;27;98009;-72
2021/08/20 10:20:31;;;;;;;1999.90;999.90;;;;;;;14.09;48.07;101111.47;5072487;27;97298;-74
2021/08/20 10:23:01;;;;;;;1999.90;999.90;;;;;;;14.06;48.03;101095.38;5057678;27;98050;-74
2021/08/20 10:25:29;;;;;;;1999.90;999.90;;;;;;;14.08;48.31;101106.09;5057661;27;97973;-73
2021/08/20 10:27:57;;;;;;;1999.90;999.90;;;;;;;14.09;48.27;101107.91;5053486;27;98381;-72
2021/08/20 10:30:26;;;;;;;1999.90;999.90;;;;;;;14.11;48.36;101109.72;5056701;27;96889;-73
2021/08/20 10:33:05;;;;;;;1999.90;999.90;;;;;;;14.08;48.13;101123.06;5054678;27;97506;-75
2021/08/20 10:35:50;;;;;;;1999.90;999.90;;;;;;;14.07;48.05;101106.97;5035012;27;100724;-75
2021/08/20 10:38:31;;;;;;;1999.90;999.90;;;;;;;14.07;48.19;101110.56;5058196;27;99626;-73
2021/08/20 10:41:17;;;;;;;1999.90;999.90;;;;;;;14.05;48.30;101123.03;5058117;27;96965;-75
2021/08/20 10:43:54;;;;;;;1999.90;999.90;;;;;;;14.10;48.40;101107.00;5061691;27;97256;-74
2021/08/20 10:47:05;;;;;;;1999.90;999.90;;;;;;;14.33;47.26;101118.91;5055627;27;98944;-73
2021/08/20 10:49:38;;;;;;;1999.90;999.90;;;;;;;14.26;48.07;101113.44;5056589;27;100969;-72
2021/08/20 10:52:06;;;;;;;1999.90;999.90;;;;;;;14.28;47.91;101109.00;5057020;27;96913;-73
2021/08/20 10:55:17;;;;;;;1999.90;999.90;;;;;;;14.31;47.99;101104.59;5054283;27;97148;-74
2021/08/20 10:58:05;;;;;;;1999.90;999.90;;;;;;;14.39;48.02;101110.91;5058280;27;98160;-72
2021/08/20 11:00:35;;;;;;;1999.90;999.90;;;;;;;14.45;48.16;101110.06;5055650;27;100650;-75
2021/08/20 11:03:04;;;;;;;1999.90;999.90;;;;;;;14.49;47.86;101107.47;5066477;27;96816;-72